Time;durP1;ratioP1;P1;durP2;ratioP2;P2;SDS_P1;SDS_P2;PMS_P1;PMS_P2;Temp;Humidity;BMP_temperature;BMP_pressure;BME280_temperature;BME280_humidity;BME280_pressure;Samples;Min_cycle;Max_cycle;Signal;HPM_P1;HPM_P2
2022/06/03 00:00:03;;;;;;;10.30;6.03;;;;;;;8.19;100.00;100342.84;5005083;28;20124;-53
2022/06/03 00:03:07;;;;;;;13.02;5.82;;;;;;;7.93;100.00;100350.84;5007145;28;20050;-53
2022/06/03 00:06:09;;;;;;;10.18;5.90;;;;;;;8.00;100.00;100358.63;5005482;28;20062;-54
2022/06/03 00:09:27;;;;;;;10.25;5.53;;;;;;;7.89;100.00;100341.28;5006487;28;20128;-53
2022/06/03 00:12:39;;;;;;;9.35;5.40;;;;;;;7.90;100.00;100357.81;5006924;28;20435;-53
2022/06/03 00:15:25;;;;;;;6.53;4.40;;;;;;;7.92;100.00;100366.47;5007977;28;20144;-53
2022/06/03 00:18:13;;;;;;;6.40;3.72;;;;;;;8.00;100.00;100363.84;5007056;28;20049;-54
2022/06/03 00:21:08;;;;;;;4.38;3.13;;;;;;;7.82;100.00;100357.84;5006956;28;20034;-53
2022/06/03 00:23:58;;;;;;;5.07;3.22;;;;;;;7.83;100.00;100353.47;5007591;28;20057;-53
2022/06/03 00:27:33;;;;;;;5.85;2.95;;;;;;;7.79;100.00;100354.38;5005867;28;20053;-53
2022/06/03 00:30:57;;;;;;;6.40;3.63;;;;;;;7.60;100.00;100349.25;4989064;28;20053;-53
2022/06/03 00:34:13;;;;;;;10.63;6.38;;;;;;;7.72;100.00;100349.19;5007734;28;20057;-53
2022/06/03 00:37:17;;;;;;;12.77;7.75;;;;;;;7.69;100.00;100353.56;5009733;28;20488;-53
2022/06/03 00:40:39;;;;;;;11.75;7.07;;;;;;;7.67;100.00;100355.28;5010619;28;20050;-53
2022/06/03 00:43:41;;;;;;;7.60;5.45;;;;;;;7.49;100.00;100344.09;4999606;28;20583;-53
2022/06/03 00:46:43;;;;;;;7.68;4.60;;;;;;;7.50;100.00;100353.63;5009929;28;20565;-53
2022/06/03 00:49:39;;;;;;;7.70;4.40;;;;;;;7.55;100.00;100358.84;5011303;28;20054;-53
2022/06/03 00:52:49;;;;;;;8.15;4.85;;;;;;;6.99;100.00;100359.88;5008072;28;20496;-53
2022/06/03 00:55:48;;;;;;;9.18;5.20;;;;;;;7.12;100.00;100360.72;4990029;28;20476;-53
2022/06/03 00:58:51;;;;;;;6.40;4.25;;;;;;;7.32;100.00;100358.94;5009251;28;20160;-54
2022/06/03 01:01:39;;;;;;;7.53;4.80;;;;;;;7.40;100.00;100357.16;5011439;28;20046;-54
2022/06/03 01:04:43;;;;;;;8.60;4.50;;;;;;;7.42;100.00;100351.94;5012253;28;20049;-53
2022/06/03 01:07:42;;;;;;;7.75;4.85;;;;;;;7.45;100.00;100347.59;5011973;28;20049;-53
2022/06/03 01:10:35;;;;;;;7.43;4.28;;;;;;;7.36;100.00;100347.63;5007330;28;20053;-53
2022/06/03 01:13:22;;;;;;;9.57;4.57;;;;;;;7.39;100.00;100358.03;5011045;28;20050;-53
2022/06/03 01:16:29;;;;;;;9.73;5.47;;;;;;;7.41;100.00;100350.19;5007990;28;20115;-53
2022/06/03 01:19:29;;;;;;;10.13;5.68;;;;;;;7.35;100.00;100352.84;5004404;28;20108;-52
2022/06/03 01:22:19;;;;;;;12.43;6.28;;;;;;;7.35;100.00;100345.03;5003315;28;20491;-53
2022/06/03 01:25:07;;;;;;;8.88;5.07;;;;;;;7.28;100.00;100352.00;5005501;28;20068;-53
2022/06/03 01:28:28;;;;;;;6.85;4.38;;;;;;;6.94;100.00;100356.41;5004445;28;20045;-52
2022/06/03 01:31:27;;;;;;;7.43;3.95;;;;;;;6.93;100.00;100362.50;5006188;28;20049;-53
2022/06/03 01:34:28;;;;;;;10.05;5.22;;;;;;;6.72;100.00;100361.63;5006205;28;20468;-53
2022/06/03 01:37:22;;;;;;;7.13;4.30;;;;;;;6.94;100.00;100365.06;5007065;28;20087;-52
2022/06/03 01:40:16;;;;;;;8.95;4.88;;;;;;;6.99;100.00;100360.75;5009089;28;20046;-53
2022/06/03 01:43:03;;;;;;;9.57;5.10;;;;;;;6.96;100.00;100355.53;5006314;28;20045;-53
2022/06/03 01:46:00;;;;;;;9.43;5.55;;;;;;;6.98;100.00;100353.78;5009639;28;20064;-53
2022/06/03 01:48:56;;;;;;;9.27;5.22;;;;;;;6.83;100.00;100364.25;5009206;28;20045;-55
2022/06/03 01:52:02;;;;;;;10.20;5.18;;;;;;;6.75;100.00;100360.75;5009480;28;20096;-53
2022/06/03 01:55:19;;;;;;;9.90;5.13;;;;;;;6.83;100.00;100359.03;5010364;28;20042;-53
2022/06/03 01:58:40;;;;;;;7.90;4.25;;;;;;;6.89;100.00;100355.53;5008921;28;20042;-54
2022/06/03 02:01:37;;;;;;;8.90;4.20;;;;;;;6.95;100.00;100364.19;5009281;28;20049;-53
2022/06/03 02:04:39;;;;;;;6.05;3.55;;;;;;;6.92;100.00;100356.41;5005626;28;20054;-53
2022/06/03 02:07:45;;;;;;;7.22;3.90;;;;;;;6.86;100.00;100355.53;5003434;28;20601;-53
2022/06/03 02:10:53;;;;;;;6.13;4.13;;;;;;;6.89;100.00;100353.81;5004401;28;20403;-54
2022/06/03 02:13:44;;;;;;;7.90;4.65;;;;;;;6.75;100.00;100351.19;5005081;28;20050;-53
2022/06/03 02:16:40;;;;;;;8.75;3.70;;;;;;;6.84;100.00;100347.72;5005059;28;20053;-53
2022/06/03 02:20:06;;;;;;;5.90;4.03;;;;;;;6.75;100.00;100346.00;5002958;28;20046;-53
2022/06/03 02:23:11;;;;;;;6.32;4.00;;;;;;;6.75;100.00;100351.19;5001821;28;20056;-53
2022/06/03 02:26:25;;;;;;;4.80;2.95;;;;;;;6.77;100.00;100349.47;5005320;28;20045;-53
2022/06/03 02:32:39;;;;;;;8.13;3.47;;;;;;;6.71;100.00;100356.44;5007401;28;20384;-53
2022/06/03 02:35:53;;;;;;;7.60;4.03;;;;;;;6.66;100.00;100356.44;5006774;28;20168;-53
2022/06/03 02:38:56;;;;;;;7.22;3.97;;;;;;;6.63;100.00;100347.75;4994982;28;20079;-53
2022/06/03 02:41:43;;;;;;;9.20;3.40;;;;;;;6.75;100.00;100345.13;5008409;28;20064;-53
2022/06/03 02:44:55;;;;;;;11.63;4.03;;;;;;;6.66;100.00;100352.94;5008440;28;20046;-53
2022/06/03 02:48:01;;;;;;;8.15;3.95;;;;;;;6.72;100.00;100352.94;5008891;28;20054;-53
2022/06/03 02:50:57;;;;;;;5.78;3.00;;;;;;;6.70;100.00;100355.56;5009792;28;20057;-53
2022/06/03 02:54:03;;;;;;;6.68;3.80;;;;;;;6.69;100.00;100355.56;5011453;28;20488;-53
2022/06/03 02:57:15;;;;;;;5.63;3.60;;;;;;;6.69;100.00;100361.63;5012034;28;20054;-53
2022/06/03 03:00:24;;;;;;;6.13;3.72;;;;;;;6.75;100.00;100359.00;5008680;28;20049;-53
2022/06/03 03:03:17;;;;;;;7.05;3.78;;;;;;;6.69;100.00;100363.34;5014788;28;20885;-53
2022/06/03 03:06:20;;;;;;;7.95;3.50;;;;;;;6.70;100.00;100365.13;5012276;28;20041;-54
2022/06/03 03:09:14;;;;;;;9.40;3.80;;;;;;;6.67;100.00;100359.91;5014382;28;20049;-53
2022/06/03 03:12:10;;;;;;;9.30;4.20;;;;;;;6.78;100.00;100376.38;5007827;28;20119;-54
2022/06/03 03:15:41;;;;;;;7.38;3.70;;;;;;;6.81;100.00;100371.16;5008968;28;20050;-53
2022/06/03 03:18:40;;;;;;;6.53;3.40;;;;;;;6.90;100.00;100371.16;5008451;28;20426;-53
2022/06/03 03:21:54;;;;;;;6.78;3.60;;;;;;;6.94;100.00;100370.28;5008875;28;20049;-53
2022/06/03 03:25:17;;;;;;;5.40;3.60;;;;;;;6.87;100.00;100372.91;5008452;28;20060;-53
2022/06/03 03:28:08;;;;;;;;;;;;;;;6.96;100.00;100375.50;5008533;28;20652;-52
2022/06/03 03:31:14;;;;;;;6.97;4.03;;;;;;;6.96;100.00;100381.59;5007263;28;20265;-53
2022/06/03 03:34:20;;;;;;;6.65;3.75;;;;;;;6.97;100.00;100378.09;5009095;28;20065;-54
2022/06/03 03:37:10;;;;;;;5.85;3.58;;;;;;;7.07;100.00;100383.28;5009005;28;20053;-53
2022/06/03 03:40:16;;;;;;;7.53;4.10;;;;;;;7.11;100.00;100391.09;5009157;28;20485;-53
2022/06/03 03:43:28;;;;;;;8.50;5.43;;;;;;;6.47;100.00;100397.22;5010554;28;20053;-53
2022/06/03 03:46:37;;;;;;;7.90;5.07;;;;;;;6.99;100.00;100391.13;5010131;28;20424;-53
2022/06/03 03:49:39;;;;;;;5.82;4.47;;;;;;;6.98;100.00;100400.66;5014571;28;20054;-53
2022/06/03 03:52:37;;;;;;;5.07;3.53;;;;;;;7.09;100.00;100392.84;5015258;28;20365;-53
2022/06/03 03:55:30;;;;;;;4.03;3.05;;;;;;;7.40;100.00;100404.06;5014689;28;20049;-54
2022/06/03 03:58:30;;;;;;;4.75;3.25;;;;;;;7.49;100.00;100409.25;5013659;28;20164;-54
2022/06/03 04:01:50;;;;;;;4.72;3.60;;;;;;;7.56;100.00;100409.22;5009384;28;20060;-53
2022/06/03 04:05:12;;;;;;;4.75;3.20;;;;;;;8.12;100.00;100406.38;5009369;28;20425;-53
2022/06/03 04:08:15;;;;;;;3.17;2.67;;;;;;;8.85;100.00;100404.16;5010429;28;20050;-54
2022/06/03 04:11:05;;;;;;;4.40;3.63;;;;;;;9.71;100.00;100404.13;5010628;28;20123;-54
2022/06/03 04:14:20;;;;;;;5.20;4.25;;;;;;;10.40;100.00;100397.13;5009693;28;20103;-54
2022/06/03 04:17:14;;;;;;;5.53;4.38;;;;;;;10.84;100.00;100399.06;5008956;28;20046;-54
2022/06/03 04:20:10;;;;;;;6.88;5.05;;;;;;;11.62;100.00;100405.47;5008625;28;20061;-54
2022/06/03 04:23:10;;;;;;;6.53;5.00;;;;;;;11.80;100.00;100411.28;5008400;28;20042;-54
2022/06/03 04:26:22;;;;;;;6.70;5.30;;;;;;;12.57;100.00;100408.69;5009070;28;20044;-54
2022/06/03 04:29:41;;;;;;;7.45;5.22;;;;;;;13.26;100.00;100406.16;5008891;28;20076;-54
2022/06/03 04:32:53;;;;;;;8.38;4.68;;;;;;;13.33;100.00;100412.97;5007805;28;20038;-54
2022/06/03 04:35:44;;;;;;;6.22;4.85;;;;;;;13.87;100.00;100411.47;5009249;28;20053;-54
2022/06/03 04:38:31;;;;;;;5.40;4.00;;;;;;;14.09;100.00;100412.56;5004573;28;20567;-55
2022/06/03 04:41:53;;;;;;;6.88;4.95;;;;;;;15.14;100.00;100408.34;5006237;28;20053;-55
2022/06/03 04:44:59;;;;;;;5.50;4.25;;;;;;;15.62;100.00;100411.94;5011191;28;20056;-55
2022/06/03 04:48:02;;;;;;;5.53;4.30;;;;;;;15.78;100.00;100414.91;5009250;28;20053;-55
2022/06/03 04:51:08;;;;;;;6.18;4.40;;;;;;;15.61;100.00;100418.13;5011525;28;20045;-55
2022/06/03 04:54:27;;;;;;;5.40;3.72;;;;;;;16.20;100.00;100423.00;5010203;28;20050;-55
2022/06/03 04:57:35;;;;;;;4.15;3.40;;;;;;;15.92;100.00;100422.31;5013030;28;20050;-55
2022/06/03 05:00:31;;;;;;;3.17;2.47;;;;;;;16.19;100.00;100426.56;5009598;28;20599;-55
2022/06/03 05:03:37;;;;;;;3.20;2.10;;;;;;;16.46;100.00;100421.13;5005197;28;20783;-55
2022/06/03 05:06:47;;;;;;;3.90;3.50;;;;;;;17.09;100.00;100421.22;5003911;28;20057;-56
2022/06/03 05:09:44;;;;;;;15.88;11.48;;;;;;;17.44;100.00;100427.66;5004973;28;20576;-55
2022/06/03 05:12:47;;;;;;;96.63;61.30;;;;;;;17.69;100.00;100422.13;5005239;28;20049;-57
2022/06/03 05:15:32;;;;;;;80.13;49.80;;;;;;;17.77;100.00;100425.31;5004574;28;20081;-56
2022/06/03 05:18:26;;;;;;;40.78;26.13;;;;;;;17.23;100.00;100426.81;5004104;28;20423;-56
2022/06/03 05:21:22;;;;;;;15.15;10.15;;;;;;;18.49;100.00;100415.81;5010609;28;20081;-57
2022/06/03 05:24:27;;;;;;;5.05;3.80;;;;;;;18.64;100.00;100413.28;5009338;28;20385;-57
2022/06/03 05:28:10;;;;;;;4.45;3.00;;;;;;;19.28;100.00;100419.84;5008588;28;20050;-56
2022/06/03 05:31:30;;;;;;;5.30;2.20;;;;;;;19.30;99.11;100425.94;4937867;29;20051;-56
2022/06/03 05:34:42;;;;;;;3.40;2.38;;;;;;;19.54;90.28;100422.94;5003437;28;20061;-56
2022/06/03 05:37:46;;;;;;;6.55;2.33;;;;;;;19.54;95.42;100428.25;5004136;28;20048;-56
2022/06/03 05:41:07;;;;;;;3.55;2.15;;;;;;;20.33;89.98;100424.91;5005402;28;20065;-56
2022/06/03 05:44:08;;;;;;;5.95;2.55;;;;;;;20.55;88.83;100422.78;5004205;28;20100;-56
2022/06/03 05:47:05;;;;;;;6.28;3.17;;;;;;;20.66;87.98;100411.53;5002915;28;20046;-56
2022/06/03 05:50:05;;;;;;;6.65;3.25;;;;;;;20.19;84.45;100415.06;4996987;28;20100;-56
2022/06/03 05:52:58;;;;;;;6.22;3.13;;;;;;;20.70;84.84;100413.06;5004275;28;20473;-56
2022/06/03 05:56:20;;;;;;;5.78;3.70;;;;;;;21.22;80.63;100418.00;5004413;28;20061;-56
2022/06/03 05:59:16;;;;;;;4.90;3.20;;;;;;;21.21;84.12;100421.63;5004053;28;20054;-56
2022/06/03 06:02:07;;;;;;;5.53;3.35;;;;;;;21.44;82.46;100420.28;5005294;28;20073;-56
2022/06/03 06:05:10;;;;;;;8.75;3.60;;;;;;;21.17;81.97;100423.59;5005790;28;20528;-56
2022/06/03 06:08:26;;;;;;;4.47;3.08;;;;;;;21.32;79.20;100421.84;5006912;28;20463;-57
2022/06/03 06:11:16;;;;;;;5.57;3.03;;;;;;;21.69;79.47;100416.97;5006386;28;20050;-56
2022/06/03 06:14:32;;;;;;;4.53;2.55;;;;;;;21.12;80.32;100420.34;5006943;28;20676;-57
2022/06/03 06:17:34;;;;;;;4.40;2.08;;;;;;;21.83;77.58;100410.78;4991806;28;20058;-57
2022/06/03 06:20:44;;;;;;;4.40;2.65;;;;;;;21.90;78.99;100412.09;5014245;28;20058;-57
2022/06/03 06:23:42;;;;;;;4.90;2.17;;;;;;;22.58;72.66;100417.53;5007649;28;20511;-57
2022/06/03 06:27:00;;;;;;;2.92;1.95;;;;;;;21.77;71.23;100411.16;5009100;28;20080;-57
2022/06/03 06:30:07;;;;;;;4.80;2.28;;;;;;;22.36;70.83;100412.75;5011389;28;20674;-57
2022/06/03 06:33:13;;;;;;;5.88;2.10;;;;;;;22.60;68.60;100410.28;5017565;28;20054;-57
2022/06/03 06:36:09;;;;;;;5.07;2.28;;;;;;;23.07;68.91;100408.09;5018664;28;20042;-57
2022/06/03 06:39:00;;;;;;;3.05;1.40;;;;;;;21.86;64.04;100408.78;5009838;28;20050;-56
2022/06/03 06:42:20;;;;;;;0.95;0.90;;;;;;;22.62;64.18;100397.72;5010923;28;20526;-57
2022/06/03 06:45:05;;;;;;;2.08;0.70;;;;;;;22.80;65.00;100405.44;4999664;28;20108;-58
2022/06/03 06:48:14;;;;;;;1.05;0.28;;;;;;;21.92;63.11;100399.53;5017504;28;20041;-57
2022/06/03 06:51:08;;;;;;;1.85;0.90;;;;;;;22.20;62.16;100405.81;5001701;28;20050;-58
2022/06/03 06:54:12;;;;;;;1.33;0.75;;;;;;;23.08;63.60;100400.00;5007009;28;20050;-58
2022/06/03 06:57:14;;;;;;;3.70;1.30;;;;;;;22.81;60.58;100400.03;5017128;28;20045;-59
2022/06/03 07:00:32;;;;;;;;;;;;;;;22.92;64.16;100404.63;5016510;28;20137;-57
2022/06/03 07:03:27;;;;;;;2.50;1.52;;;;;;;22.92;63.01;100404.63;4977224;28;19971;-57
2022/06/03 07:06:24;;;;;;;5.32;1.90;;;;;;;23.15;60.36;100388.91;5012470;28;20087;-57
2022/06/03 07:09:40;;;;;;;2.08;1.00;;;;;;;23.32;60.78;100394.78;5011571;28;20053;-58
2022/06/03 07:12:48;;;;;;;3.15;0.93;;;;;;;23.50;60.73;100390.00;5008907;28;20049;-58
2022/06/03 07:15:50;;;;;;;2.33;0.63;;;;;;;24.35;57.80;100394.69;5010789;28;20049;-59
2022/06/03 07:22:13;;;;;;;2.22;0.80;;;;;;;24.36;55.42;100393.72;5011256;28;20042;-59
2022/06/03 07:25:04;;;;;;;1.13;0.20;;;;;;;24.74;50.35;100390.06;5010246;28;20041;-59
2022/06/03 07:27:57;;;;;;;1.52;0.52;;;;;;;24.31;51.39;100391.41;5011482;28;20061;-58
2022/06/03 07:31:00;;;;;;;0.82;0.43;;;;;;;24.66;51.16;100383.44;5009962;28;20597;-57
2022/06/03 07:33:59;;;;;;;0.35;0.30;;;;;;;24.41;50.33;100387.09;5008539;28;20616;-59
2022/06/03 07:37:00;;;;;;;1.38;0.32;;;;;;;24.45;49.42;100382.38;5009110;28;20065;-58
2022/06/03 07:40:04;;;;;;;2.58;0.70;;;;;;;24.56;48.66;100385.09;5007550;28;20046;-57
2022/06/03 07:43:26;;;;;;;0.73;0.30;;;;;;;25.18;47.32;100381.34;5012854;28;20051;-58
2022/06/03 07:46:21;;;;;;;0.50;0.30;;;;;;;24.38;48.86;100378.41;5007864;28;20429;-58
2022/06/03 07:49:06;;;;;;;1.20;0.40;;;;;;;24.49;47.24;100378.50;5009397;28;20046;-58
2022/06/03 07:52:13;;;;;;;1.30;0.30;;;;;;;24.52;46.62;100372.06;5010041;28;20042;-57
2022/06/03 07:54:58;;;;;;;2.95;0.93;;;;;;;25.98;44.61;100384.00;5000075;28;20058;-58
2022/06/03 07:57:52;;;;;;;1.90;0.50;;;;;;;25.46;45.77;100373.84;5008960;28;20057;-60
2022/06/03 08:00:38;;;;;;;0.20;0.10;;;;;;;25.47;44.35;100379.06;5012616;28;20172;-59
2022/06/03 08:03:26;;;;;;;2.05;0.40;;;;;;;25.42;41.08;100378.59;5013464;28;20060;-59
2022/06/03 08:06:10;;;;;;;1.92;0.28;;;;;;;26.04;44.96;100371.94;5007688;28;20050;-59
2022/06/03 08:12:00;;;;;;;0.93;0.47;;;;;;;24.76;47.38;100380.91;5015682;28;20464;-58
2022/06/03 08:14:44;;;;;;;1.17;0.65;;;;;;;25.45;46.64;100374.81;5013252;28;20668;-57
2022/06/03 08:17:29;;;;;;;0.52;0.30;;;;;;;25.78;44.84;100368.63;5016027;28;20085;-60
2022/06/03 08:20:20;;;;;;;0.68;0.38;;;;;;;25.50;47.66;100367.25;5016112;28;20038;-59
2022/06/03 08:23:05;;;;;;;0.50;0.35;;;;;;;24.92;46.99;100383.31;5022588;28;20030;-58
2022/06/03 08:25:53;;;;;;;2.35;0.60;;;;;;;24.31;48.01;100369.09;5011506;28;20096;-58
2022/06/03 08:28:43;;;;;;;2.70;0.30;;;;;;;26.10;45.71;100372.28;5010388;28;20050;-57
2022/06/03 08:31:30;;;;;;;0.40;0.20;;;;;;;25.37;46.03;100370.06;5014875;28;20049;-58
2022/06/03 08:34:24;;;;;;;0.82;0.40;;;;;;;24.56;49.94;100368.19;5015882;28;20718;-58
2022/06/03 08:37:16;;;;;;;1.48;0.50;;;;;;;24.95;47.32;100370.53;5006175;28;20054;-58
2022/06/03 08:40:14;;;;;;;0.50;0.20;;;;;;;25.57;51.61;100373.84;5013266;28;20052;-59
2022/06/03 08:43:10;;;;;;;3.85;0.40;;;;;;;25.17;47.62;100363.56;5012566;28;21505;-59
2022/06/03 08:46:02;;;;;;;3.22;0.40;;;;;;;25.50;46.76;100365.44;5010667;28;20053;-58
2022/06/03 08:48:49;;;;;;;0.65;0.25;;;;;;;25.49;47.07;100368.25;5012593;28;20049;-58
2022/06/03 08:51:45;;;;;;;2.03;0.40;;;;;;;25.15;47.54;100365.50;5014329;28;20050;-57
2022/06/03 08:54:37;;;;;;;0.73;0.30;;;;;;;25.67;45.30;100349.84;5016313;28;20550;-57
2022/06/03 08:57:33;;;;;;;0.52;0.40;;;;;;;25.30;47.83;100358.94;5011867;28;20551;-58
2022/06/03 09:00:26;;;;;;;1.15;0.30;;;;;;;25.54;46.22;100344.59;5010679;28;20221;-58
2022/06/03 09:03:16;;;;;;;2.50;0.55;;;;;;;24.97;47.75;100349.00;5012209;28;20072;-58
2022/06/03 09:06:21;;;;;;;1.55;0.55;;;;;;;25.32;49.26;100359.69;5011230;28;20053;-56
2022/06/03 09:09:27;;;;;;;1.45;0.38;;;;;;;25.32;44.85;100353.50;5012955;28;20049;-57
2022/06/03 09:12:23;;;;;;;1.38;0.35;;;;;;;26.82;41.98;100353.91;5007878;28;20049;-57
2022/06/03 09:15:17;;;;;;;0.98;0.20;;;;;;;25.99;43.83;100348.13;5012608;28;20120;-57
2022/06/03 09:18:26;;;;;;;4.70;0.68;;;;;;;26.97;43.14;100349.91;5010993;28;20556;-58
2022/06/03 09:21:14;;;;;;;0.73;0.20;;;;;;;26.27;43.63;100348.56;5008740;28;20041;-57
2022/06/03 09:24:07;;;;;;;1.55;0.13;;;;;;;26.44;45.16;100339.13;5008646;28;20107;-57
2022/06/03 09:27:02;;;;;;;0.30;0.20;;;;;;;25.93;45.77;100345.94;5009695;28;20049;-58
2022/06/03 09:29:51;;;;;;;0.38;0.30;;;;;;;26.06;43.26;100337.75;5010042;28;20042;-57
2022/06/03 09:32:45;;;;;;;0.98;0.40;;;;;;;26.06;44.47;100344.00;5008595;28;20041;-58
2022/06/03 09:35:30;;;;;;;2.38;0.38;;;;;;;25.69;43.11;100348.75;5014155;28;20050;-58
2022/06/03 09:38:18;;;;;;;0.63;0.30;;;;;;;25.87;47.52;100336.59;5011267;28;20123;-57
2022/06/03 09:41:03;;;;;;;0.80;0.20;;;;;;;26.11;44.19;100336.41;5006637;28;20065;-58
2022/06/03 09:43:50;;;;;;;0.95;0.22;;;;;;;25.93;45.64;100332.53;5008950;28;20077;-59
2022/06/03 09:46:36;;;;;;;1.15;0.30;;;;;;;26.64;43.74;100332.97;5009020;28;20046;-57
2022/06/03 09:49:20;;;;;;;3.10;0.28;;;;;;;26.32;44.95;100327.56;5008101;28;20046;-58
2022/06/03 09:52:12;;;;;;;3.40;0.20;;;;;;;26.80;43.72;100330.69;5008640;28;20050;-56
2022/06/03 09:55:05;;;;;;;0.20;0.20;;;;;;;27.26;44.93;100339.38;5010713;28;20473;-57
2022/06/03 09:57:50;;;;;;;0.95;0.10;;;;;;;26.75;45.14;100335.63;5009066;28;20058;-58
2022/06/03 10:00:47;;;;;;;2.92;0.20;;;;;;;27.07;44.48;100331.16;5009902;28;20037;-58
2022/06/03 10:03:32;;;;;;;0.93;0.35;;;;;;;27.07;42.86;100332.00;5010064;28;20049;-56
2022/06/03 10:07:02;;;;;;;1.42;1.02;;;;;;;27.24;42.75;100334.13;5008164;28;20070;-57
2022/06/03 10:12:50;;;;;;;0.75;0.20;;;;;;;27.63;39.26;100323.56;5011767;28;20137;-57
2022/06/03 10:15:53;;;;;;;0.55;0.28;;;;;;;27.22;40.55;100317.28;5013611;28;20046;-57
2022/06/03 10:18:49;;;;;;;1.50;0.40;;;;;;;27.73;40.79;100324.44;5014652;28;20443;-57
2022/06/03 10:21:33;;;;;;;1.10;0.40;;;;;;;27.37;41.70;100312.41;5010830;28;20049;-58
2022/06/03 10:24:21;;;;;;;1.13;0.32;;;;;;;28.23;42.64;100312.81;5008100;28;20100;-57
2022/06/03 10:27:06;;;;;;;6.63;4.20;;;;;;;26.98;43.47;100311.31;5005357;28;20112;-57
2022/06/03 10:29:52;;;;;;;4.43;2.45;;;;;;;28.11;41.23;100300.47;5008286;28;20049;-59
2022/06/03 10:32:36;;;;;;;1.38;0.32;;;;;;;27.83;38.96;100302.97;5008420;28;20100;-58
2022/06/03 10:35:26;;;;;;;0.68;0.40;;;;;;;28.09;39.81;100306.00;5008433;28;20045;-58
2022/06/03 10:38:16;;;;;;;8.00;1.45;;;;;;;27.94;38.52;100307.38;5007486;28;20473;-57
2022/06/03 10:41:09;;;;;;;1.20;0.30;;;;;;;27.18;41.00;100305.09;5010727;28;20050;-57
2022/06/03 10:43:54;;;;;;;3.33;1.10;;;;;;;27.70;37.49;100299.66;5009460;28;20045;-59
2022/06/03 10:46:38;;;;;;;1.15;0.60;;;;;;;27.17;38.07;100297.13;5007696;28;20416;-58
2022/06/03 10:49:26;;;;;;;0.93;0.20;;;;;;;27.82;35.99;100285.16;5008397;28;20061;-57
2022/06/03 11:01:52;;;;;;;0.70;0.20;;;;;;;28.32;36.52;100281.53;5011699;28;20555;-58
2022/06/03 11:04:39;;;;;;;1.70;0.30;;;;;;;26.65;37.32;100278.28;5012451;28;20046;-60
2022/06/03 11:07:33;;;;;;;0.73;0.20;;;;;;;26.70;38.91;100273.34;5009618;28;20465;-57
2022/06/03 11:10:27;;;;;;;0.25;0.20;;;;;;;28.04;36.82;100275.09;5010403;28;20048;-56
2022/06/03 11:13:24;;;;;;;1.15;0.50;;;;;;;28.00;39.12;100265.63;5017023;28;20388;-57
2022/06/03 11:16:15;;;;;;;0.77;0.50;;;;;;;28.42;36.07;100267.09;5014170;28;20534;-57
2022/06/03 11:19:16;;;;;;;0.52;0.20;;;;;;;27.71;37.62;100261.84;5017245;28;20053;-57
2022/06/03 11:22:19;;;;;;;0.50;0.32;;;;;;;25.88;40.88;100260.47;5012801;28;20045;-57
2022/06/03 11:25:10;;;;;;;1.45;0.65;;;;;;;24.79;41.32;100260.16;5013105;28;20045;-58
2022/06/03 11:28:00;;;;;;;0.75;0.20;;;;;;;26.92;39.75;100250.88;5011353;28;20157;-58
2022/06/03 11:30:54;;;;;;;1.10;0.55;;;;;;;26.48;38.38;100254.66;5012172;28;20038;-56
2022/06/03 11:34:01;;;;;;;1.85;1.48;;;;;;;26.92;38.08;100258.94;5008310;28;20452;-57
2022/06/03 11:37:03;;;;;;;4.15;3.25;;;;;;;26.68;39.33;100251.16;5016801;28;20080;-59
2022/06/03 11:39:48;;;;;;;3.63;2.03;;;;;;;27.06;38.43;100246.13;5008260;28;20044;-57
2022/06/03 11:42:46;;;;;;;2.25;1.40;;;;;;;27.24;37.78;100248.09;5009033;28;20461;-58
2022/06/03 11:45:39;;;;;;;1.42;0.80;;;;;;;26.87;39.54;100245.03;5007566;28;20092;-57
2022/06/03 11:48:35;;;;;;;1.63;0.82;;;;;;;27.50;39.12;100243.09;5008421;28;20452;-58
2022/06/03 11:51:19;;;;;;;1.90;0.52;;;;;;;26.51;37.45;100239.16;5007851;28;20428;-57
2022/06/03 11:54:11;;;;;;;0.28;0.13;;;;;;;27.40;35.21;100236.84;5007782;28;20431;-57
2022/06/03 11:56:56;;;;;;;0.40;0.10;;;;;;;26.88;39.88;100229.78;5009452;28;20041;-57
2022/06/03 12:00:03;;;;;;;1.45;0.20;;;;;;;27.62;36.62;100221.47;5007502;28;20492;-58
2022/06/03 12:03:08;;;;;;;1.00;0.32;;;;;;;27.54;37.19;100226.69;5009566;28;20097;-56
2022/06/03 12:06:04;;;;;;;2.90;0.40;;;;;;;27.74;38.28;100213.13;5009432;28;20058;-57
2022/06/03 12:08:59;;;;;;;0.45;0.20;;;;;;;28.43;35.84;100208.69;5007921;28;20104;-58
2022/06/03 12:14:57;;;;;;;1.13;0.50;;;;;;;27.62;38.62;100205.31;5014929;28;20164;-57
2022/06/03 12:17:42;;;;;;;1.15;0.15;;;;;;;27.75;38.06;100213.97;5008192;28;20046;-57
2022/06/03 12:20:29;;;;;;;1.27;0.60;;;;;;;27.92;36.28;100209.81;5006786;28;20136;-57
2022/06/03 12:23:14;;;;;;;2.60;0.30;;;;;;;27.91;38.27;100203.53;5003685;28;20049;-58
2022/06/03 12:26:01;;;;;;;1.40;0.30;;;;;;;27.29;38.73;100204.66;5004021;28;20088;-58
2022/06/03 12:28:49;;;;;;;0.30;0.20;;;;;;;27.19;39.48;100196.56;5003024;28;20476;-57
2022/06/03 12:31:45;;;;;;;0.93;0.40;;;;;;;27.12;37.87;100192.69;5006899;28;20046;-57
2022/06/03 12:34:30;;;;;;;0.75;0.45;;;;;;;27.12;38.67;100192.69;5009520;28;20053;-57
2022/06/03 12:37:29;;;;;;;1.38;0.20;;;;;;;27.47;37.07;100178.81;5002230;28;20049;-57
2022/06/03 12:40:26;;;;;;;2.20;0.22;;;;;;;26.54;38.39;100185.16;4996748;28;20400;-56
2022/06/03 12:43:31;;;;;;;0.70;0.30;;;;;;;26.96;35.79;100177.06;5001243;28;20045;-55
2022/06/03 12:46:34;;;;;;;0.60;0.28;;;;;;;26.99;38.22;100176.78;5007343;28;20520;-56
2022/06/03 12:49:44;;;;;;;2.28;0.77;;;;;;;27.47;37.00;100175.28;5005627;28;20462;-56
2022/06/03 12:52:29;;;;;;;4.95;0.35;;;;;;;27.04;37.61;100171.88;4985593;28;20404;-56
2022/06/03 12:55:36;;;;;;;2.70;0.30;;;;;;;26.86;37.45;100157.34;5006662;28;20665;-55
2022/06/03 12:58:32;;;;;;;1.40;0.20;;;;;;;26.18;37.92;100150.72;5005965;28;20038;-56
2022/06/03 13:01:34;;;;;;;1.92;0.30;;;;;;;26.53;37.18;100153.09;5017714;28;20056;-56
2022/06/03 13:05:06;;;;;;;1.20;0.68;;;;;;;25.93;37.81;100152.75;4999702;28;20436;-56
2022/06/03 13:07:56;;;;;;;1.48;0.45;;;;;;;26.20;39.09;100148.75;5004080;28;20046;-56
2022/06/03 13:11:12;;;;;;;1.33;0.40;;;;;;;26.30;37.53;100146.97;5005148;28;20045;-56
2022/06/03 13:13:57;;;;;;;2.33;1.00;;;;;;;25.75;39.89;100139.03;5008957;28;20045;-57
2022/06/03 13:16:44;;;;;;;1.38;0.30;;;;;;;25.55;38.06;100131.81;5009833;28;20050;-56
2022/06/03 13:19:29;;;;;;;3.33;0.70;;;;;;;25.26;41.51;100126.16;5012318;28;20069;-57
2022/06/03 13:22:19;;;;;;;1.95;0.63;;;;;;;26.28;39.13;100125.63;5009360;28;20804;-55
2022/06/03 13:25:15;;;;;;;1.17;0.45;;;;;;;26.72;38.61;100126.34;5005588;28;20053;-56
2022/06/03 13:28:06;;;;;;;1.27;0.25;;;;;;;25.84;38.02;100113.31;5009026;28;20049;-56
2022/06/03 13:31:12;;;;;;;0.70;0.30;;;;;;;26.36;39.40;100119.63;5009392;28;20049;-56
2022/06/03 13:34:10;;;;;;;0.75;0.30;;;;;;;26.51;38.10;100112.09;5009508;28;20060;-56
2022/06/03 13:37:16;;;;;;;0.63;0.25;;;;;;;25.33;40.31;100103.22;5002578;28;20049;-56
2022/06/03 13:40:06;;;;;;;2.97;0.32;;;;;;;26.00;39.75;100105.69;5004488;28;20058;-55
2022/06/03 13:42:59;;;;;;;1.83;0.50;;;;;;;25.93;39.01;100095.56;5002905;28;20096;-55
2022/06/03 13:45:57;;;;;;;2.20;0.40;;;;;;;25.67;40.13;100098.59;5004767;28;20100;-56
2022/06/03 13:48:42;;;;;;;1.05;0.50;;;;;;;26.35;39.91;100097.25;5003382;28;20936;-56
2022/06/03 13:51:37;;;;;;;2.22;0.68;;;;;;;25.72;40.65;100090.16;5009063;28;20050;-56
2022/06/03 13:54:33;;;;;;;1.75;0.28;;;;;;;25.99;40.33;100087.84;5010599;28;20049;-56
2022/06/03 13:57:36;;;;;;;0.70;0.45;;;;;;;25.76;38.97;100081.72;5013374;28;20045;-56
2022/06/03 14:00:38;;;;;;;0.95;0.52;;;;;;;25.48;40.95;100077.84;5006309;28;20345;-56
2022/06/03 14:03:30;;;;;;;1.67;1.17;;;;;;;25.25;39.07;100079.75;5010696;28;20038;-55
2022/06/03 14:06:28;;;;;;;1.05;0.40;;;;;;;25.85;38.62;100070.25;5007964;28;20050;-56
2022/06/03 14:09:27;;;;;;;1.30;0.80;;;;;;;25.05;40.80;100059.88;5008549;28;20380;-56
2022/06/03 14:12:21;;;;;;;1.92;0.73;;;;;;;25.67;41.75;100073.59;5005713;28;20050;-55
2022/06/03 14:15:22;;;;;;;2.22;0.80;;;;;;;25.02;41.57;100061.94;5008268;28;20053;-57